.
WxDataArchive / Data Records for 2016-03-07
2016-03-06 March 2016 2016-03-08

Data Records for Monday, 07 March 2016

Time	Temp	Chill	HIndex	Humid	Dewpt	 Wind 	HiWind	WindDir	Rain 	Barom
-----	----	-----	------	-----	-----	------	------	-------	-----	-----
00:00	41.5	41.5	41.5	77	34.8	0	2	68	0.00	30.041 
00:05	41.8	41.8	41.8	77	35.1	0	2	68	0.00	30.041 
00:10	41.9	41.9	41.9	77	35.2	0	2	68	0.00	30.041 
00:15	42.1	42.1	42.1	77	35.4	0	1	68	0.00	30.028 
00:20	42.3	42.3	42.3	76	35.3	0	3	68	0.00	30.028 
00:25	42.3	42.3	42.3	76	35.3	0	2	68	0.00	30.028 
00:30	42.5	42.5	42.5	75	35.1	0	1	68	0.00	30.029 
00:35	42.6	42.6	42.6	75	35.2	0	2	248	0.00	30.029 
00:40	42.6	42.6	42.6	74	34.9	0	2	248	0.00	30.029 
00:45	42.6	42.6	42.6	74	34.9	0	4	248	0.00	30.020 
00:50	42.6	42.6	42.6	74	34.9	0	3	68	0.00	30.020 
00:55	42.5	42.5	42.5	74	34.8	0	2	68	0.00	30.020 
01:00	42.5	42.5	42.5	74	34.8	0	2	68	0.00	30.024 
01:05	42.5	42.5	42.5	74	34.8	0	2	68	0.00	30.024 
01:10	42.5	42.5	42.5	75	35.1	0	2	68	0.00	30.024 
01:15	42.5	42.5	42.5	75	35.1	0	2	68	0.00	30.013 
01:20	42.5	42.5	42.5	75	35.1	0	3	68	0.00	30.013 
01:25	42.5	42.5	42.5	75	35.1	0	2	68	0.00	30.013 
01:30	42.6	42.6	42.6	74	34.9	0	3	68	0.00	30.011 
01:35	42.6	42.6	42.6	74	34.9	0	2	68	0.00	30.011 
01:40	42.6	42.6	42.6	74	34.9	0	3	68	0.00	30.011 
01:45	42.6	42.6	42.6	74	34.9	0	2	292	0.00	30.009 
01:50	42.6	42.6	42.6	74	34.9	0	2	292	0.00	30.009 
01:55	42.5	42.5	42.5	74	34.8	0	2	292	0.00	30.009 
02:00	42.3	42.3	42.3	74	34.6	0	1	292	0.00	30.007 
02:05	42.3	42.3	42.3	74	34.6	0	2	292	0.00	30.007 
02:10	42.3	42.3	42.3	75	35.0	0	2	292	0.00	30.007 
02:15	42.2	42.2	42.2	75	34.9	0	1	292	0.00	29.994 
02:20	42.2	42.2	42.2	75	34.9	0	2	292	0.00	29.994 
02:25	42.1	42.1	42.1	75	34.8	0	2	292	0.00	29.994 
02:30	42.1	42.1	42.1	75	34.8	0	1	292	0.00	29.993 
02:35	41.9	41.9	41.9	75	34.6	0	1	292	0.00	29.993 
02:40	41.8	41.8	41.8	75	34.5	0	0	---	0.00	29.993 
02:45	41.6	41.6	41.6	75	34.3	0	1	292	0.00	29.989 
02:50	41.3	41.3	41.3	76	34.3	0	1	292	0.00	29.989 
02:55	41.3	41.3	41.3	76	34.3	0	1	292	0.00	29.989 
03:00	41.2	41.2	41.2	76	34.2	0	1	292	0.00	29.986 
03:05	41.1	41.1	41.1	77	34.4	0	2	292	0.00	29.986 
03:10	40.9	40.9	40.9	77	34.3	0	1	292	0.00	29.986 
03:15	40.8	40.8	40.8	77	34.2	0	1	292	0.00	29.977 
03:20	40.6	40.6	40.6	77	34.0	0	1	292	0.00	29.977 
03:25	40.5	40.5	40.5	77	33.9	0	1	292	0.00	29.977 
03:30	40.3	40.3	40.3	78	34.0	0	2	292	0.00	29.977 
03:35	40.2	40.2	40.2	78	33.9	0	2	292	0.00	29.977 
03:40	40.1	40.1	40.1	78	33.8	0	2	292	0.00	29.977 
03:45	40.1	40.1	40.1	79	34.1	0	1	292	0.00	29.975 
03:50	40.1	40.1	40.1	79	34.1	0	2	292	0.00	29.975 
03:55	40.1	40.1	40.1	79	34.1	0	2	292	0.00	29.975 
04:00	39.9	39.9	39.9	79	33.9	0	1	292	0.00	29.973 
04:05	39.9	39.9	39.9	79	33.9	0	2	292	0.00	29.973 
04:10	39.8	39.8	39.8	79	33.8	0	1	292	0.00	29.973 
04:15	39.8	39.8	39.8	80	34.1	0	2	292	0.00	29.971 
04:20	39.8	39.8	39.8	80	34.1	0	1	292	0.00	29.971 
04:25	39.8	39.8	39.8	80	34.1	0	1	292	0.00	29.971 
04:30	39.8	39.8	39.8	80	34.1	0	1	292	0.00	29.971 
04:35	39.6	39.6	39.6	80	33.9	0	0	---	0.00	29.971 
04:40	39.6	39.6	39.6	80	33.9	0	1	292	0.00	29.971 
04:45	39.5	39.5	39.5	80	33.9	0	1	292	0.00	29.972 
04:50	39.3	39.3	39.3	80	33.7	0	0	---	0.00	29.972 
04:55	39.2	39.2	39.2	80	33.6	0	1	292	0.00	29.972 
05:00	39.2	39.2	39.2	80	33.6	0	1	292	0.00	29.973 
05:05	39.2	39.2	39.2	80	33.6	0	0	---	0.00	29.973 
05:10	39.1	39.1	39.1	81	33.8	0	2	292	0.00	29.973 
05:15	39.1	39.1	39.1	81	33.8	0	1	292	0.00	29.973 
05:20	39.1	39.1	39.1	80	33.5	0	1	292	0.00	29.973 
05:25	39.1	39.1	39.1	81	33.8	0	0	---	0.00	29.973 
05:30	38.9	38.9	38.9	81	33.6	0	1	292	0.00	29.973 
05:35	38.9	38.9	38.9	81	33.6	0	0	---	0.00	29.973 
05:40	38.9	38.9	38.9	81	33.6	0	1	292	0.00	29.973 
05:45	38.9	38.9	38.9	81	33.6	0	1	292	0.00	29.972 
05:50	38.9	38.9	38.9	81	33.6	0	0	---	0.00	29.972 
05:55	38.9	38.9	38.9	81	33.6	0	2	292	0.00	29.972 
06:00	39.1	39.1	39.1	81	33.8	0	2	292	0.00	29.971 
06:05	39.2	39.2	39.2	80	33.6	0	1	292	0.00	29.971 
06:10	39.3	39.3	39.3	80	33.7	0	1	292	0.00	29.971 
06:15	39.3	39.3	39.3	80	33.7	0	1	292	0.00	29.972 
06:20	39.5	39.5	39.5	80	33.9	0	2	292	0.00	29.972 
06:25	39.5	39.5	39.5	80	33.9	0	1	292	0.00	29.972 
06:30	39.5	39.5	39.5	80	33.9	0	1	292	0.00	29.973 
06:35	39.5	39.5	39.5	80	33.9	0	0	---	0.00	29.973 
06:40	39.6	39.6	39.6	80	33.9	0	1	292	0.00	29.973 
06:45	39.6	39.6	39.6	79	33.6	0	1	292	0.00	29.973 
06:50	39.5	39.5	39.5	79	33.5	0	0	---	0.00	29.973 
06:55	39.5	39.5	39.5	79	33.5	0	0	---	0.00	29.973 
07:00	39.5	39.5	39.5	79	33.5	0	0	---	0.00	29.976 
07:05	39.3	39.3	39.3	79	33.3	0	0	---	0.00	29.976 
07:10	39.2	39.2	39.2	79	33.2	0	0	---	0.00	29.976 
07:15	39.3	39.3	39.3	80	33.7	0	1	292	0.00	29.980 
07:20	39.5	39.5	39.5	80	33.9	0	1	292	0.00	29.980 
07:25	39.6	39.6	39.6	79	33.6	0	1	292	0.00	29.980 
07:30	39.8	39.8	39.8	79	33.8	0	2	292	0.00	29.979 
07:35	39.9	39.9	39.9	79	33.9	0	1	292	0.00	29.979 
07:40	40.2	40.2	40.2	79	34.2	0	1	292	0.00	29.979 
07:45	40.3	40.3	40.3	78	34.0	0	2	292	0.00	29.985 
07:50	40.6	40.6	40.6	78	34.3	0	2	292	0.00	29.985 
07:55	41.1	41.1	41.1	78	34.8	0	1	292	0.00	29.985 
08:00	41.5	41.5	41.5	77	34.8	0	1	292	0.00	29.987 
08:05	41.9	41.9	41.9	76	34.9	0	2	292	0.00	29.987 
08:10	42.3	42.3	42.3	75	35.0	0	1	292	0.00	29.987 
08:15	42.6	42.6	42.6	75	35.2	0	2	292	0.00	29.984 
08:20	43.1	43.1	43.1	74	35.4	0	1	292	0.00	29.984 
08:25	43.5	43.5	43.5	73	35.4	0	2	292	0.00	29.984 
08:30	43.9	43.9	43.9	73	35.8	0	2	292	0.00	29.986 
08:35	44.2	44.2	44.2	72	35.8	0	2	292	0.00	29.986 
08:40	44.5	44.5	44.5	71	35.7	0	1	292	0.00	29.986 
08:45	44.8	44.8	44.8	70	35.6	0	1	292	0.00	29.992 
08:50	45.1	45.1	45.1	69	35.5	0	2	292	0.00	29.992 
08:55	45.7	45.7	45.7	69	36.1	0	2	315	0.00	29.992 
09:00	46.4	46.4	46.4	68	36.4	0	3	315	0.00	29.989 
09:05	47.4	47.4	47.4	66	36.6	0	3	315	0.00	29.989 
09:10	48.3	48.3	48.3	64	36.7	1	3	315	0.00	29.989 
09:15	49.2	49.2	49.2	63	37.1	0	3	315	0.00	29.986 
09:20	49.9	49.9	49.9	60	36.6	1	2	315	0.00	29.986 
09:25	50.8	50.8	50.8	59	37.0	1	12	225	0.00	29.986 
09:30	51.4	51.4	51.4	57	36.7	1	5	248	0.00	29.990 
09:35	51.7	51.7	51.7	56	36.5	1	3	248	0.00	29.990 
09:40	52.0	52.0	52.0	55	36.3	1	3	292	0.00	29.990 
09:45	52.3	52.3	52.3	54	36.2	1	6	68	0.00	29.991 
09:50	52.8	52.8	52.8	54	36.6	1	5	248	0.00	29.991 
09:55	53.3	53.3	53.3	53	36.6	1	5	248	0.00	29.991 
10:00	53.8	53.8	53.8	53	37.1	1	3	248	0.00	29.991 
10:05	53.9	53.9	53.9	52	36.7	1	3	248	0.00	29.991 
10:10	54.1	54.1	54.1	52	36.9	1	7	248	0.00	29.991 
10:15	54.1	54.1	54.1	53	37.4	1	3	270	0.00	29.994 
10:20	54.1	54.1	54.1	53	37.4	1	8	270	0.00	29.994 
10:25	54.2	54.2	54.2	52	37.0	1	4	315	0.00	29.994 
10:30	54.5	54.5	54.5	51	36.7	2	4	248	0.00	29.996 
10:35	54.7	54.7	54.7	51	36.9	2	6	248	0.00	29.996 
10:40	54.8	54.8	54.8	50	36.5	2	9	270	0.00	29.996 
10:45	54.8	54.8	54.8	50	36.5	2	6	225	0.00	29.998 
10:50	54.8	54.8	54.8	52	37.5	1	5	248	0.00	29.998 
10:55	54.8	54.8	54.8	52	37.5	1	2	248	0.00	29.998 
11:00	54.8	54.8	54.8	52	37.5	2	5	270	0.00	30.005 
11:05	54.7	54.7	54.7	52	37.4	1	3	248	0.00	30.005 
11:10	54.4	54.4	54.4	52	37.1	1	5	248	0.00	30.005 
11:15	54.1	54.1	54.1	53	37.4	1	7	270	0.00	30.008 
11:20	53.8	53.8	53.8	54	37.5	0	2	270	0.00	30.008 
11:25	53.6	53.6	53.6	54	37.4	1	3	270	0.00	30.008 
11:30	53.5	53.5	53.5	54	37.3	1	4	270	0.00	30.007 
11:35	53.5	53.5	53.5	55	37.7	0	4	270	0.00	30.007 
11:40	53.3	53.3	53.3	56	38.0	1	4	248	0.00	30.007 
11:45	53.3	53.3	53.3	58	38.9	1	4	248	0.00	30.005 
11:50	53.3	53.3	53.3	59	39.3	1	3	248	0.00	30.005 
11:55	53.2	53.2	53.2	59	39.2	1	3	248	0.00	30.005 
12:00	53.1	53.1	53.1	62	40.4	0	4	248	0.00	30.003 
12:05	52.8	52.8	52.8	64	41.0	0	2	248	0.00	30.003 
12:10	52.5	52.5	52.5	63	40.3	0	3	248	0.00	30.003 
12:15	52.2	52.2	52.2	64	40.4	0	2	248	0.00	29.997 
12:20	52.0	52.0	52.0	65	40.6	0	2	248	0.00	29.997 
12:25	52.0	52.0	52.0	65	40.6	0	1	248	0.00	29.997 
12:30	52.2	52.2	52.2	65	40.8	0	1	248	0.00	29.995 
12:35	52.3	52.3	52.3	65	40.9	0	1	248	0.00	29.995 
12:40	52.9	52.9	52.9	66	41.9	0	3	248	0.00	29.995 
12:45	53.9	53.9	53.9	63	41.6	1	3	112	0.00	29.983 
12:50	55.7	55.7	55.7	62	42.9	1	3	202	0.00	29.983 
12:55	56.7	56.7	56.7	55	40.7	2	7	68	0.00	29.983 
13:00	57.5	57.5	57.5	54	41.0	1	5	90	0.00	29.973 
13:05	57.6	57.6	57.6	53	40.6	2	5	270	0.00	29.973 
13:10	57.6	57.6	57.6	53	40.6	2	4	248	0.00	29.973 
13:15	57.6	57.6	57.6	53	40.6	1	4	270	0.00	29.969 
13:20	57.6	57.6	57.6	54	41.1	1	6	68	0.00	29.969 
13:25	57.2	57.2	57.2	55	41.2	1	6	270	0.00	29.969 
13:30	56.7	56.7	56.7	56	41.2	1	4	68	0.00	29.967 
13:35	56.5	56.5	56.5	57	41.5	1	6	68	0.00	29.967 
13:40	56.3	56.3	56.3	58	41.7	0	1	90	0.00	29.967 
13:45	56.3	56.3	56.3	58	41.7	0	3	90	0.00	29.959 
13:50	56.3	56.3	56.3	58	41.7	0	4	90	0.00	29.959 
13:55	56.5	56.5	56.5	59	42.3	1	2	90	0.00	29.959 
14:00	57.0	57.0	57.0	60	43.3	1	3	90	0.00	29.953 
14:05	57.6	57.6	57.6	58	42.9	0	3	90	0.00	29.953 
14:10	58.3	58.3	58.3	58	43.6	1	4	90	0.00	29.953 
14:15	58.9	58.9	58.9	58	44.1	1	3	225	0.00	29.947 
14:20	59.8	59.8	59.8	57	44.5	1	3	225	0.00	29.947 
14:25	60.4	60.4	60.4	57	45.1	1	5	248	0.00	29.947 
14:30	61.2	61.2	61.2	56	45.4	1	6	248	0.00	29.941 
14:35	61.2	61.2	61.2	55	44.9	3	9	248	0.00	29.941 
14:40	60.7	60.7	60.7	56	44.9	2	7	248	0.00	29.941 
14:45	60.2	60.2	60.2	58	45.4	1	6	248	0.00	29.945 
14:50	59.9	59.9	59.9	59	45.5	1	3	248	0.00	29.945 
14:55	59.8	59.8	59.8	60	45.9	1	4	248	0.00	29.945 
15:00	59.8	59.8	59.8	60	45.9	3	10	270	0.00	29.941 
15:05	59.8	59.8	59.8	60	45.9	2	7	248	0.00	29.941 
15:10	59.9	59.9	59.9	60	46.0	2	6	248	0.00	29.941 
15:15	59.9	59.9	59.9	59	45.5	1	4	248	0.00	29.943 
15:20	59.6	59.6	59.6	58	44.8	2	7	248	0.00	29.943 
15:25	59.3	59.3	59.3	58	44.5	2	7	248	0.00	29.943 
15:30	59.0	59.0	59.0	60	45.1	1	5	338	0.00	29.945 
15:35	58.9	58.9	58.9	59	44.6	1	4	292	0.00	29.945 
15:40	58.7	58.7	58.7	59	44.4	1	5	248	0.00	29.945 
15:45	58.6	58.6	58.6	59	44.3	1	7	248	0.00	29.944 
15:50	58.4	58.4	58.4	59	44.1	2	6	248	0.00	29.944 
15:55	58.3	58.3	58.3	59	44.0	1	4	248	0.00	29.944 
16:00	58.3	58.3	58.3	58	43.6	1	4	292	0.00	29.940 
16:05	58.3	58.3	58.3	58	43.6	1	6	270	0.00	29.940 
16:10	58.4	58.4	58.4	60	44.6	1	4	135	0.00	29.940 
16:15	58.7	58.7	58.7	59	44.4	1	5	68	0.00	29.935 
16:20	58.9	58.9	58.9	58	44.1	1	3	22	0.00	29.935 
16:25	59.0	59.0	59.0	57	43.8	2	5	90	0.00	29.935 
16:30	59.0	59.0	59.0	56	43.3	2	5	112	0.00	29.933 
16:35	58.7	58.7	58.7	55	42.6	1	3	112	0.00	29.933 
16:40	58.4	58.4	58.4	55	42.3	0	2	112	0.00	29.933 
16:45	58.1	58.1	58.1	56	42.5	1	3	112	0.00	29.936 
16:50	58.0	58.0	58.0	56	42.4	0	3	90	0.00	29.936 
16:55	57.8	57.8	57.8	56	42.2	0	1	90	0.00	29.936 
17:00	57.6	57.6	57.6	56	42.0	0	2	90	0.00	29.937 
17:05	57.5	57.5	57.5	56	41.9	0	2	90	0.00	29.937 
17:10	57.3	57.3	57.3	58	42.6	0	1	90	0.00	29.937 
17:15	57.3	57.3	57.3	58	42.6	0	1	90	0.00	29.936 
17:20	57.3	57.3	57.3	58	42.6	0	1	90	0.00	29.936 
17:25	57.2	57.2	57.2	58	42.6	0	2	90	0.00	29.936 
17:30	57.2	57.2	57.2	58	42.6	0	2	90	0.00	29.935 
17:35	57.3	57.3	57.3	59	43.1	0	1	90	0.00	29.935 
17:40	57.3	57.3	57.3	58	42.6	0	3	90	0.00	29.935 
17:45	57.3	57.3	57.3	59	43.1	0	1	90	0.00	29.932 
17:50	57.2	57.2	57.2	59	43.0	0	1	90	0.00	29.932 
17:55	57.2	57.2	57.2	59	43.0	0	1	90	0.00	29.932 
18:00	57.2	57.2	57.2	59	43.0	0	3	90	0.00	29.930 
18:05	57.2	57.2	57.2	59	43.0	0	2	90	0.00	29.930 
18:10	57.0	57.0	57.0	60	43.3	0	2	90	0.00	29.930 
18:15	57.0	57.0	57.0	61	43.7	0	1	90	0.00	29.932 
18:20	56.9	56.9	56.9	61	43.6	0	1	90	0.00	29.932 
18:25	56.7	56.7	56.7	62	43.8	0	1	90	0.00	29.932 
18:30	56.6	56.6	56.6	62	43.7	0	0	---	0.00	29.936 
18:35	56.5	56.5	56.5	62	43.6	0	1	90	0.00	29.936 
18:40	56.3	56.3	56.3	63	43.9	0	2	90	0.00	29.936 
18:45	56.2	56.2	56.2	63	43.8	0	1	90	0.00	29.942 
18:50	56.0	56.0	56.0	64	44.0	0	1	90	0.00	29.942 
18:55	55.9	55.9	55.9	64	43.9	0	0	---	0.00	29.942 
19:00	55.7	55.7	55.7	65	44.1	0	0	---	0.00	29.941 
19:05	55.6	55.6	55.6	65	44.0	0	0	---	0.00	29.941 
19:10	55.4	55.4	55.4	66	44.2	0	1	90	0.00	29.941 
19:15	55.3	55.3	55.3	67	44.5	0	2	90	0.00	29.942 
19:20	55.1	55.1	55.1	67	44.3	0	1	90	0.00	29.942 
19:25	55.0	55.0	55.0	67	44.2	0	2	90	0.00	29.942 
19:30	54.8	54.8	54.8	67	44.1	0	1	90	0.00	29.948 
19:35	54.8	54.8	54.8	68	44.4	0	0	---	0.00	29.948 
19:40	54.7	54.7	54.7	68	44.3	0	0	---	0.00	29.948 
19:45	54.7	54.7	54.7	69	44.7	0	1	90	0.00	29.949 
19:50	54.5	54.5	54.5	69	44.5	0	1	90	0.00	29.949 
19:55	54.5	54.5	54.5	69	44.5	0	1	90	0.00	29.949 
20:00	54.5	54.5	54.5	68	44.2	0	1	90	0.00	29.946 
20:05	54.7	54.7	54.7	68	44.3	0	0	---	0.00	29.946 
20:10	54.7	54.7	54.7	67	44.0	0	1	90	0.00	29.946 
20:15	54.7	54.7	54.7	67	44.0	0	0	---	0.00	29.947 
20:20	54.7	54.7	54.7	66	43.6	0	1	90	0.00	29.947 
20:25	54.7	54.7	54.7	65	43.2	0	1	90	0.00	29.947 
20:30	54.7	54.7	54.7	63	42.4	0	2	90	0.00	29.946 
20:35	54.8	54.8	54.8	62	42.0	0	1	90	0.00	29.946 
20:40	55.1	55.1	55.1	61	41.9	0	2	90	0.00	29.946 
20:45	55.3	55.3	55.3	61	42.1	0	2	90	0.00	29.945 
20:50	55.3	55.3	55.3	60	41.7	0	2	90	0.00	29.945 
20:55	55.4	55.4	55.4	60	41.7	0	2	90	0.00	29.945 
21:00	55.4	55.4	55.4	59	41.3	0	3	112	0.00	29.945 
21:05	55.4	55.4	55.4	59	41.3	0	3	112	0.00	29.945 
21:10	55.6	55.6	55.6	59	41.5	0	2	112	0.00	29.945 
21:15	55.6	55.6	55.6	59	41.5	0	1	112	0.00	29.944 
21:20	55.4	55.4	55.4	59	41.3	0	2	112	0.00	29.944 
21:25	55.3	55.3	55.3	58	40.8	0	1	112	0.00	29.944 
21:30	55.3	55.3	55.3	58	40.8	0	1	112	0.00	29.950 
21:35	55.3	55.3	55.3	57	40.3	0	1	112	0.00	29.950 
21:40	55.1	55.1	55.1	57	40.1	0	2	112	0.00	29.950 
21:45	55.1	55.1	55.1	56	39.7	0	1	112	0.00	29.954 
21:50	55.0	55.0	55.0	56	39.6	0	1	112	0.00	29.954 
21:55	55.0	55.0	55.0	55	39.1	0	2	112	0.00	29.954 
22:00	55.0	55.0	55.0	54	38.7	0	1	112	0.00	29.958 
22:05	55.1	55.1	55.1	53	38.3	0	1	112	0.00	29.958 
22:10	55.3	55.3	55.3	53	38.5	0	1	112	0.00	29.958 
22:15	55.3	55.3	55.3	52	38.0	0	1	112	0.00	29.964 
22:20	55.4	55.4	55.4	52	38.1	0	1	112	0.00	29.964 
22:25	55.6	55.6	55.6	52	38.3	0	1	112	0.00	29.964 
22:30	55.6	55.6	55.6	52	38.3	0	1	112	0.00	29.959 
22:35	55.6	55.6	55.6	52	38.3	0	1	112	0.00	29.959 
22:40	55.4	55.4	55.4	52	38.1	0	1	112	0.00	29.959 
22:45	55.4	55.4	55.4	52	38.1	0	2	112	0.00	29.964 
22:50	55.4	55.4	55.4	52	38.1	0	1	112	0.00	29.964 
22:55	55.4	55.4	55.4	52	38.1	0	2	112	0.00	29.964 
23:00	55.4	55.4	55.4	52	38.1	0	1	112	0.00	29.967 
23:05	55.4	55.4	55.4	53	38.6	0	1	112	0.00	29.967 
23:10	55.4	55.4	55.4	53	38.6	0	0	---	0.00	29.967 
23:15	55.3	55.3	55.3	53	38.5	0	1	112	0.00	29.968 
23:20	55.3	55.3	55.3	53	38.5	0	2	112	0.00	29.968 
23:25	55.3	55.3	55.3	53	38.5	0	1	112	0.00	29.968 
23:30	55.3	55.3	55.3	53	38.5	0	1	112	0.00	29.967 
23:35	55.3	55.3	55.3	53	38.5	0	1	112	0.00	29.967 
23:40	55.3	55.3	55.3	53	38.5	0	1	112	0.00	29.967 
23:45	55.3	55.3	55.3	53	38.5	0	1	112	0.00	29.964 
23:50	55.3	55.3	55.3	53	38.5	0	1	112	0.00	29.964 
23:55	55.3	55.3	55.3	53	38.5	0	1	112	0.00	29.964 

CoCoRaHS
IN-AL-39
A2 Web Hosting
Creative Commons License
GoDaddy
search engine by freefind advanced

loaded 2018-11-15 14:03:40 • last modified 2010-11-18 10:43:29
Privacy PolicyDisclaimer
• wx.awcolley.com is powered by PmWiki v.2002016 •
• all content (unless otherwise noted) © 2018 A W Colley